sensor_id;sensor_type;location;lat;lon;timestamp;temperature;humidity
32522;DHT22;18963;51.504;5.316;2022-11-23T00:01:56;8.30;99.90
32522;DHT22;18963;51.504;5.316;2022-11-23T00:04:21;8.30;99.90
32522;DHT22;18963;51.504;5.316;2022-11-23T00:06:49;8.30;99.90
32522;DHT22;18963;51.504;5.316;2022-11-23T00:09:14;8.30;99.90
32522;DHT22;18963;51.504;5.316;2022-11-23T00:11:40;8.20;99.90
32522;DHT22;18963;51.504;5.316;2022-11-23T00:14:05;8.20;99.90
32522;DHT22;18963;51.504;5.316;2022-11-23T00:16:31;8.20;99.90
32522;DHT22;18963;51.504;5.316;2022-11-23T00:18:57;8.20;99.90
32522;DHT22;18963;51.504;5.316;2022-11-23T00:21:23;8.30;99.90
32522;DHT22;18963;51.504;5.316;2022-11-23T00:23:49;8.20;99.90
32522;DHT22;18963;51.504;5.316;2022-11-23T00:26:15;8.20;99.90
32522;DHT22;18963;51.504;5.316;2022-11-23T00:28:41;8.20;99.90
32522;DHT22;18963;51.504;5.316;2022-11-23T00:31:07;8.20;99.90
32522;DHT22;18963;51.504;5.316;2022-11-23T00:33:33;8.20;99.90
32522;DHT22;18963;51.504;5.316;2022-11-23T00:35:59;8.20;99.90
32522;DHT22;18963;51.504;5.316;2022-11-23T00:38:25;8.20;99.90
32522;DHT22;18963;51.504;5.316;2022-11-23T00:40:56;8.30;99.90
32522;DHT22;18963;51.504;5.316;2022-11-23T00:43:22;8.30;99.90
32522;DHT22;18963;51.504;5.316;2022-11-23T00:45:47;8.20;99.90
32522;DHT22;18963;51.504;5.316;2022-11-23T00:48:15;8.30;99.90
32522;DHT22;18963;51.504;5.316;2022-11-23T00:50:40;8.30;99.90
32522;DHT22;18963;51.504;5.316;2022-11-23T00:53:06;8.30;99.90
32522;DHT22;18963;51.504;5.316;2022-11-23T00:55:31;8.30;99.90
32522;DHT22;18963;51.504;5.316;2022-11-23T00:57:57;8.30;99.90
32522;DHT22;18963;51.504;5.316;2022-11-23T01:00:22;8.30;99.90
32522;DHT22;18963;51.504;5.316;2022-11-23T01:02:48;8.30;99.90
32522;DHT22;18963;51.504;5.316;2022-11-23T01:05:14;8.30;99.90
32522;DHT22;18963;51.504;5.316;2022-11-23T01:07:39;8.20;99.90
32522;DHT22;18963;51.504;5.316;2022-11-23T01:10:05;8.30;99.90
32522;DHT22;18963;51.504;5.316;2022-11-23T01:12:32;8.30;99.90
32522;DHT22;18963;51.504;5.316;2022-11-23T01:14:58;8.30;99.90
32522;DHT22;18963;51.504;5.316;2022-11-23T01:17:23;8.30;99.90
32522;DHT22;18963;51.504;5.316;2022-11-23T01:19:49;8.30;99.90
32522;DHT22;18963;51.504;5.316;2022-11-23T01:22:14;8.20;99.90
32522;DHT22;18963;51.504;5.316;2022-11-23T01:24:40;8.20;99.90
32522;DHT22;18963;51.504;5.316;2022-11-23T01:27:05;8.20;99.90
32522;DHT22;18963;51.504;5.316;2022-11-23T01:29:31;8.10;99.90
32522;DHT22;18963;51.504;5.316;2022-11-23T01:31:56;8.10;99.90
32522;DHT22;18963;51.504;5.316;2022-11-23T01:34:22;8.10;99.90
32522;DHT22;18963;51.504;5.316;2022-11-23T01:36:48;8.10;99.90
32522;DHT22;18963;51.504;5.316;2022-11-23T01:39:13;8.10;99.90
32522;DHT22;18963;51.504;5.316;2022-11-23T01:41:39;8.10;99.90
32522;DHT22;18963;51.504;5.316;2022-11-23T01:46:49;8.10;99.90
32522;DHT22;18963;51.504;5.316;2022-11-23T01:49:17;8.10;99.90
32522;DHT22;18963;51.504;5.316;2022-11-23T01:51:44;8.10;99.90
32522;DHT22;18963;51.504;5.316;2022-11-23T01:54:15;8.10;99.90
32522;DHT22;18963;51.504;5.316;2022-11-23T01:56:43;8.20;99.90
32522;DHT22;18963;51.504;5.316;2022-11-23T01:59:12;8.20;99.90
32522;DHT22;18963;51.504;5.316;2022-11-23T02:01:40;8.20;99.90
32522;DHT22;18963;51.504;5.316;2022-11-23T02:04:06;8.20;99.90
32522;DHT22;18963;51.504;5.316;2022-11-23T02:06:32;8.20;99.90
32522;DHT22;18963;51.504;5.316;2022-11-23T02:08:58;8.20;99.90
32522;DHT22;18963;51.504;5.316;2022-11-23T02:11:27;8.20;99.90
32522;DHT22;18963;51.504;5.316;2022-11-23T02:13:53;8.30;99.90
32522;DHT22;18963;51.504;5.316;2022-11-23T02:16:21;8.30;99.90
32522;DHT22;18963;51.504;5.316;2022-11-23T02:18:47;8.30;99.90
32522;DHT22;18963;51.504;5.316;2022-11-23T02:21:13;8.30;99.90
32522;DHT22;18963;51.504;5.316;2022-11-23T02:31:17;8.40;99.90
32522;DHT22;18963;51.504;5.316;2022-11-23T02:33:43;8.30;99.90
32522;DHT22;18963;51.504;5.316;2022-11-23T02:38:46;8.30;99.90
32522;DHT22;18963;51.504;5.316;2022-11-23T02:41:12;8.40;99.90
32522;DHT22;18963;51.504;5.316;2022-11-23T02:43:38;8.40;99.90
32522;DHT22;18963;51.504;5.316;2022-11-23T02:46:03;8.30;99.90
32522;DHT22;18963;51.504;5.316;2022-11-23T02:48:29;8.40;99.90
32522;DHT22;18963;51.504;5.316;2022-11-23T02:50:55;8.40;99.90
32522;DHT22;18963;51.504;5.316;2022-11-23T02:53:20;8.40;99.90
32522;DHT22;18963;51.504;5.316;2022-11-23T02:55:46;8.40;99.90
32522;DHT22;18963;51.504;5.316;2022-11-23T02:58:11;8.40;99.90
32522;DHT22;18963;51.504;5.316;2022-11-23T03:00:37;8.40;99.90
32522;DHT22;18963;51.504;5.316;2022-11-23T03:03:02;8.40;99.90
32522;DHT22;18963;51.504;5.316;2022-11-23T03:05:28;8.40;99.90
32522;DHT22;18963;51.504;5.316;2022-11-23T03:07:54;8.30;99.90
32522;DHT22;18963;51.504;5.316;2022-11-23T03:10:22;8.40;99.90
32522;DHT22;18963;51.504;5.316;2022-11-23T03:12:47;8.40;99.90
32522;DHT22;18963;51.504;5.316;2022-11-23T03:15:13;8.30;99.90
32522;DHT22;18963;51.504;5.316;2022-11-23T03:17:38;8.40;99.90
32522;DHT22;18963;51.504;5.316;2022-11-23T03:20:04;8.30;99.90
32522;DHT22;18963;51.504;5.316;2022-11-23T03:22:29;8.30;99.90
32522;DHT22;18963;51.504;5.316;2022-11-23T03:24:55;8.30;99.90
32522;DHT22;18963;51.504;5.316;2022-11-23T03:27:22;8.30;99.90
32522;DHT22;18963;51.504;5.316;2022-11-23T03:29:47;8.30;99.90
32522;DHT22;18963;51.504;5.316;2022-11-23T03:32:13;8.30;99.90
32522;DHT22;18963;51.504;5.316;2022-11-23T03:34:39;8.30;99.90
32522;DHT22;18963;51.504;5.316;2022-11-23T03:37:04;8.20;99.90
32522;DHT22;18963;51.504;5.316;2022-11-23T03:39:32;8.20;99.90
32522;DHT22;18963;51.504;5.316;2022-11-23T03:41:58;8.20;99.90
32522;DHT22;18963;51.504;5.316;2022-11-23T03:44:23;8.20;99.90
32522;DHT22;18963;51.504;5.316;2022-11-23T03:46:49;8.20;99.90
32522;DHT22;18963;51.504;5.316;2022-11-23T03:49:15;8.20;99.90
32522;DHT22;18963;51.504;5.316;2022-11-23T03:51:40;8.20;99.90
32522;DHT22;18963;51.504;5.316;2022-11-23T03:54:06;8.10;99.90
32522;DHT22;18963;51.504;5.316;2022-11-23T03:56:32;8.10;99.90
32522;DHT22;18963;51.504;5.316;2022-11-23T03:58:57;8.10;99.90
32522;DHT22;18963;51.504;5.316;2022-11-23T04:01:23;8.10;99.90
32522;DHT22;18963;51.504;5.316;2022-11-23T04:03:48;8.10;99.90
32522;DHT22;18963;51.504;5.316;2022-11-23T04:06:14;8.10;99.90
32522;DHT22;18963;51.504;5.316;2022-11-23T04:08:39;8.10;99.90
32522;DHT22;18963;51.504;5.316;2022-11-23T04:11:05;8.10;99.90
32522;DHT22;18963;51.504;5.316;2022-11-23T04:13:30;8.10;99.90
32522;DHT22;18963;51.504;5.316;2022-11-23T04:15:56;8.10;99.90
32522;DHT22;18963;51.504;5.316;2022-11-23T04:18:21;8.10;99.90
32522;DHT22;18963;51.504;5.316;2022-11-23T04:20:47;8.10;99.90
32522;DHT22;18963;51.504;5.316;2022-11-23T04:23:12;8.10;99.90
32522;DHT22;18963;51.504;5.316;2022-11-23T04:25:38;8.10;99.90
32522;DHT22;18963;51.504;5.316;2022-11-23T04:28:04;8.10;99.90
32522;DHT22;18963;51.504;5.316;2022-11-23T04:30:29;8.10;99.90
32522;DHT22;18963;51.504;5.316;2022-11-23T04:32:55;8.10;99.90
32522;DHT22;18963;51.504;5.316;2022-11-23T04:35:20;8.10;99.90
32522;DHT22;18963;51.504;5.316;2022-11-23T04:37:46;8.10;99.90
32522;DHT22;18963;51.504;5.316;2022-11-23T04:40:12;8.10;99.90
32522;DHT22;18963;51.504;5.316;2022-11-23T04:42:38;8.10;99.90
32522;DHT22;18963;51.504;5.316;2022-11-23T04:45:03;8.10;99.90
32522;DHT22;18963;51.504;5.316;2022-11-23T04:47:29;8.10;99.90
32522;DHT22;18963;51.504;5.316;2022-11-23T04:49:54;8.10;99.90
32522;DHT22;18963;51.504;5.316;2022-11-23T04:52:20;8.10;99.90
32522;DHT22;18963;51.504;5.316;2022-11-23T04:54:45;8.10;99.90
32522;DHT22;18963;51.504;5.316;2022-11-23T04:57:11;8.10;99.90
32522;DHT22;18963;51.504;5.316;2022-11-23T04:59:36;8.00;99.90
32522;DHT22;18963;51.504;5.316;2022-11-23T05:02:02;7.90;99.90
32522;DHT22;18963;51.504;5.316;2022-11-23T05:04:27;7.90;99.90
32522;DHT22;18963;51.504;5.316;2022-11-23T05:06:53;7.80;99.90
32522;DHT22;18963;51.504;5.316;2022-11-23T05:09:18;7.80;99.90
32522;DHT22;18963;51.504;5.316;2022-11-23T05:11:44;7.70;99.90
32522;DHT22;18963;51.504;5.316;2022-11-23T05:14:09;7.60;99.90
32522;DHT22;18963;51.504;5.316;2022-11-23T05:16:35;7.60;99.90
32522;DHT22;18963;51.504;5.316;2022-11-23T05:19:00;7.50;99.90
32522;DHT22;18963;51.504;5.316;2022-11-23T05:21:26;7.50;99.90
32522;DHT22;18963;51.504;5.316;2022-11-23T05:23:51;7.50;99.90
32522;DHT22;18963;51.504;5.316;2022-11-23T05:26:17;7.50;99.90
32522;DHT22;18963;51.504;5.316;2022-11-23T05:28:42;7.50;99.90
32522;DHT22;18963;51.504;5.316;2022-11-23T05:31:08;7.50;99.90
32522;DHT22;18963;51.504;5.316;2022-11-23T05:33:34;7.50;99.90
32522;DHT22;18963;51.504;5.316;2022-11-23T05:35:59;7.50;99.90
32522;DHT22;18963;51.504;5.316;2022-11-23T05:38:25;7.60;99.90
32522;DHT22;18963;51.504;5.316;2022-11-23T05:40:52;7.60;99.90
32522;DHT22;18963;51.504;5.316;2022-11-23T05:43:18;7.60;99.90
32522;DHT22;18963;51.504;5.316;2022-11-23T05:45:44;7.50;99.90
32522;DHT22;18963;51.504;5.316;2022-11-23T05:48:09;7.50;99.90
32522;DHT22;18963;51.504;5.316;2022-11-23T05:50:35;7.50;99.90
32522;DHT22;18963;51.504;5.316;2022-11-23T05:53:00;7.40;99.90
32522;DHT22;18963;51.504;5.316;2022-11-23T05:55:26;7.40;99.90
32522;DHT22;18963;51.504;5.316;2022-11-23T05:57:51;7.40;99.90
32522;DHT22;18963;51.504;5.316;2022-11-23T06:00:17;7.30;99.90
32522;DHT22;18963;51.504;5.316;2022-11-23T06:02:43;7.30;99.90
32522;DHT22;18963;51.504;5.316;2022-11-23T06:05:08;7.20;99.90
32522;DHT22;18963;51.504;5.316;2022-11-23T06:07:34;7.10;99.90
32522;DHT22;18963;51.504;5.316;2022-11-23T06:10:00;7.20;99.90
32522;DHT22;18963;51.504;5.316;2022-11-23T06:12:26;7.10;99.90
32522;DHT22;18963;51.504;5.316;2022-11-23T06:14:52;7.10;99.90
32522;DHT22;18963;51.504;5.316;2022-11-23T06:17:18;7.10;99.90
32522;DHT22;18963;51.504;5.316;2022-11-23T06:19:43;7.10;99.90
32522;DHT22;18963;51.504;5.316;2022-11-23T06:22:09;7.20;99.90
32522;DHT22;18963;51.504;5.316;2022-11-23T06:24:34;7.20;99.90
32522;DHT22;18963;51.504;5.316;2022-11-23T06:27:00;7.20;99.90
32522;DHT22;18963;51.504;5.316;2022-11-23T06:29:25;7.20;99.90
32522;DHT22;18963;51.504;5.316;2022-11-23T06:31:51;7.20;99.90
32522;DHT22;18963;51.504;5.316;2022-11-23T06:34:16;7.20;99.90
32522;DHT22;18963;51.504;5.316;2022-11-23T06:36:42;7.20;99.90
32522;DHT22;18963;51.504;5.316;2022-11-23T06:39:08;7.20;99.90
32522;DHT22;18963;51.504;5.316;2022-11-23T06:41:33;7.20;99.90
32522;DHT22;18963;51.504;5.316;2022-11-23T06:43:59;7.20;99.90
32522;DHT22;18963;51.504;5.316;2022-11-23T06:46:24;7.20;99.90
32522;DHT22;18963;51.504;5.316;2022-11-23T06:48:50;7.30;99.90
32522;DHT22;18963;51.504;5.316;2022-11-23T06:51:15;7.20;99.90
32522;DHT22;18963;51.504;5.316;2022-11-23T06:53:41;7.30;99.90
32522;DHT22;18963;51.504;5.316;2022-11-23T06:56:07;7.30;99.90
32522;DHT22;18963;51.504;5.316;2022-11-23T06:58:36;7.30;99.90
32522;DHT22;18963;51.504;5.316;2022-11-23T07:01:02;7.30;99.90
32522;DHT22;18963;51.504;5.316;2022-11-23T07:03:28;7.30;99.90
32522;DHT22;18963;51.504;5.316;2022-11-23T07:05:54;7.30;99.90
32522;DHT22;18963;51.504;5.316;2022-11-23T07:08:19;7.30;99.90
32522;DHT22;18963;51.504;5.316;2022-11-23T07:10:45;7.20;99.90
32522;DHT22;18963;51.504;5.316;2022-11-23T07:13:11;7.30;99.90
32522;DHT22;18963;51.504;5.316;2022-11-23T07:15:37;7.20;99.90
32522;DHT22;18963;51.504;5.316;2022-11-23T07:18:03;7.20;99.90
32522;DHT22;18963;51.504;5.316;2022-11-23T07:20:29;7.20;99.90
32522;DHT22;18963;51.504;5.316;2022-11-23T07:22:58;7.20;99.90
32522;DHT22;18963;51.504;5.316;2022-11-23T07:25:24;7.10;99.90
32522;DHT22;18963;51.504;5.316;2022-11-23T07:27:54;7.10;99.90
32522;DHT22;18963;51.504;5.316;2022-11-23T07:30:19;7.10;99.90
32522;DHT22;18963;51.504;5.316;2022-11-23T07:32:45;7.00;99.90
32522;DHT22;18963;51.504;5.316;2022-11-23T07:35:10;7.00;99.90
32522;DHT22;18963;51.504;5.316;2022-11-23T07:37:37;6.90;99.90
32522;DHT22;18963;51.504;5.316;2022-11-23T07:40:02;6.90;99.90
32522;DHT22;18963;51.504;5.316;2022-11-23T07:42:28;6.80;99.90
32522;DHT22;18963;51.504;5.316;2022-11-23T07:44:53;6.80;99.90
32522;DHT22;18963;51.504;5.316;2022-11-23T07:47:19;6.80;99.90
32522;DHT22;18963;51.504;5.316;2022-11-23T07:49:44;6.80;99.90
32522;DHT22;18963;51.504;5.316;2022-11-23T07:52:10;6.80;99.90
32522;DHT22;18963;51.504;5.316;2022-11-23T07:54:35;6.80;99.90
32522;DHT22;18963;51.504;5.316;2022-11-23T07:57:01;6.80;99.90
32522;DHT22;18963;51.504;5.316;2022-11-23T07:59:26;6.80;99.90
32522;DHT22;18963;51.504;5.316;2022-11-23T08:01:52;6.80;99.90
32522;DHT22;18963;51.504;5.316;2022-11-23T08:04:17;6.80;99.90
32522;DHT22;18963;51.504;5.316;2022-11-23T08:06:43;6.80;99.90
32522;DHT22;18963;51.504;5.316;2022-11-23T08:09:08;6.80;99.90
32522;DHT22;18963;51.504;5.316;2022-11-23T08:11:34;6.80;99.90
32522;DHT22;18963;51.504;5.316;2022-11-23T08:13:59;6.80;99.90
32522;DHT22;18963;51.504;5.316;2022-11-23T08:16:25;6.80;99.90
32522;DHT22;18963;51.504;5.316;2022-11-23T08:18:50;6.80;99.90
32522;DHT22;18963;51.504;5.316;2022-11-23T08:21:16;6.80;99.90
32522;DHT22;18963;51.504;5.316;2022-11-23T08:23:41;6.90;99.90
32522;DHT22;18963;51.504;5.316;2022-11-23T08:26:07;6.90;99.90
32522;DHT22;18963;51.504;5.316;2022-11-23T08:28:32;6.90;99.90
32522;DHT22;18963;51.504;5.316;2022-11-23T08:30:58;6.90;99.90
32522;DHT22;18963;51.504;5.316;2022-11-23T08:33:23;6.90;99.90
32522;DHT22;18963;51.504;5.316;2022-11-23T08:35:49;6.90;99.90
32522;DHT22;18963;51.504;5.316;2022-11-23T08:38:14;7.00;99.90
32522;DHT22;18963;51.504;5.316;2022-11-23T08:40:40;7.00;99.90
32522;DHT22;18963;51.504;5.316;2022-11-23T08:43:05;7.00;99.90
32522;DHT22;18963;51.504;5.316;2022-11-23T08:45:31;7.10;99.90
32522;DHT22;18963;51.504;5.316;2022-11-23T08:48:00;7.20;99.90
32522;DHT22;18963;51.504;5.316;2022-11-23T08:50:26;7.20;99.90
32522;DHT22;18963;51.504;5.316;2022-11-23T08:52:54;7.40;99.90
32522;DHT22;18963;51.504;5.316;2022-11-23T08:55:20;7.60;99.90
32522;DHT22;18963;51.504;5.316;2022-11-23T08:57:45;7.80;99.90
32522;DHT22;18963;51.504;5.316;2022-11-23T09:00:11;7.90;99.90
32522;DHT22;18963;51.504;5.316;2022-11-23T09:02:36;8.10;99.90
32522;DHT22;18963;51.504;5.316;2022-11-23T09:05:02;8.20;99.90
32522;DHT22;18963;51.504;5.316;2022-11-23T09:07:29;8.40;99.90
32522;DHT22;18963;51.504;5.316;2022-11-23T09:09:56;8.40;99.90
32522;DHT22;18963;51.504;5.316;2022-11-23T09:12:21;8.60;99.90
32522;DHT22;18963;51.504;5.316;2022-11-23T09:14:46;8.60;99.90
32522;DHT22;18963;51.504;5.316;2022-11-23T09:17:12;8.70;99.90
32522;DHT22;18963;51.504;5.316;2022-11-23T09:19:37;8.70;99.90
32522;DHT22;18963;51.504;5.316;2022-11-23T09:22:03;8.80;99.90
32522;DHT22;18963;51.504;5.316;2022-11-23T09:24:28;8.90;99.90
32522;DHT22;18963;51.504;5.316;2022-11-23T09:26:54;8.90;99.90
32522;DHT22;18963;51.504;5.316;2022-11-23T09:29:20;8.90;99.90
32522;DHT22;18963;51.504;5.316;2022-11-23T09:31:45;8.90;99.90
32522;DHT22;18963;51.504;5.316;2022-11-23T09:34:11;8.90;99.90
32522;DHT22;18963;51.504;5.316;2022-11-23T09:36:38;8.90;99.90
32522;DHT22;18963;51.504;5.316;2022-11-23T09:39:03;8.90;99.90
32522;DHT22;18963;51.504;5.316;2022-11-23T09:44:04;9.00;99.90
32522;DHT22;18963;51.504;5.316;2022-11-23T09:49:11;9.20;99.90
32522;DHT22;18963;51.504;5.316;2022-11-23T09:51:37;9.30;99.90
32522;DHT22;18963;51.504;5.316;2022-11-23T09:56:49;9.60;99.90
32522;DHT22;18963;51.504;5.316;2022-11-23T09:59:22;9.70;99.90
32522;DHT22;18963;51.504;5.316;2022-11-23T10:01:50;9.80;99.90
32522;DHT22;18963;51.504;5.316;2022-11-23T10:04:16;9.80;99.90
32522;DHT22;18963;51.504;5.316;2022-11-23T10:06:42;9.90;99.90
32522;DHT22;18963;51.504;5.316;2022-11-23T10:09:24;10.00;99.90
32522;DHT22;18963;51.504;5.316;2022-11-23T10:14:56;10.10;99.90
32522;DHT22;18963;51.504;5.316;2022-11-23T10:22:21;10.40;99.90
32522;DHT22;18963;51.504;5.316;2022-11-23T10:24:50;10.50;99.90
32522;DHT22;18963;51.504;5.316;2022-11-23T10:27:17;10.60;99.90
32522;DHT22;18963;51.504;5.316;2022-11-23T10:29:43;10.80;99.90
32522;DHT22;18963;51.504;5.316;2022-11-23T10:32:19;10.80;99.90
32522;DHT22;18963;51.504;5.316;2022-11-23T10:37:12;11.10;99.90
32522;DHT22;18963;51.504;5.316;2022-11-23T10:39:38;11.20;99.90
32522;DHT22;18963;51.504;5.316;2022-11-23T10:42:11;11.30;99.90
32522;DHT22;18963;51.504;5.316;2022-11-23T10:44:38;11.40;99.90
32522;DHT22;18963;51.504;5.316;2022-11-23T10:47:07;11.60;99.90
32522;DHT22;18963;51.504;5.316;2022-11-23T10:49:33;11.70;99.90
32522;DHT22;18963;51.504;5.316;2022-11-23T10:52:24;11.70;99.90
32522;DHT22;18963;51.504;5.316;2022-11-23T11:02:44;11.30;99.90
32522;DHT22;18963;51.504;5.316;2022-11-23T11:05:56;11.50;99.90
32522;DHT22;18963;51.504;5.316;2022-11-23T11:07:56;11.60;99.90
32522;DHT22;18963;51.504;5.316;2022-11-23T11:10:36;11.50;99.90
32522;DHT22;18963;51.504;5.316;2022-11-23T11:13:03;11.40;99.90
32522;DHT22;18963;51.504;5.316;2022-11-23T11:15:54;11.10;99.90
32522;DHT22;18963;51.504;5.316;2022-11-23T11:18:20;10.80;99.90
32522;DHT22;18963;51.504;5.316;2022-11-23T11:20:54;10.60;99.90
32522;DHT22;18963;51.504;5.316;2022-11-23T11:23:20;10.50;99.90
32522;DHT22;18963;51.504;5.316;2022-11-23T11:25:46;10.40;99.90
32522;DHT22;18963;51.504;5.316;2022-11-23T11:28:21;10.30;99.90
32522;DHT22;18963;51.504;5.316;2022-11-23T11:31:34;10.30;99.90
32522;DHT22;18963;51.504;5.316;2022-11-23T11:33:41;10.30;99.90
32522;DHT22;18963;51.504;5.316;2022-11-23T11:36:10;10.40;99.90
32522;DHT22;18963;51.504;5.316;2022-11-23T11:38:38;10.40;99.90
32522;DHT22;18963;51.504;5.316;2022-11-23T11:41:09;10.50;99.90
32522;DHT22;18963;51.504;5.316;2022-11-23T11:43:40;10.50;99.90
32522;DHT22;18963;51.504;5.316;2022-11-23T11:46:11;10.40;99.90
32522;DHT22;18963;51.504;5.316;2022-11-23T11:53:40;10.40;99.90
32522;DHT22;18963;51.504;5.316;2022-11-23T11:59:02;10.40;99.90
32522;DHT22;18963;51.504;5.316;2022-11-23T12:01:37;10.50;99.90
32522;DHT22;18963;51.504;5.316;2022-11-23T12:04:11;10.50;99.90
32522;DHT22;18963;51.504;5.316;2022-11-23T12:06:45;10.50;99.90
32522;DHT22;18963;51.504;5.316;2022-11-23T12:09:14;10.50;99.90
32522;DHT22;18963;51.504;5.316;2022-11-23T12:11:40;10.50;99.90
32522;DHT22;18963;51.504;5.316;2022-11-23T12:14:09;10.50;99.90
32522;DHT22;18963;51.504;5.316;2022-11-23T12:25:07;10.40;99.90
32522;DHT22;18963;51.504;5.316;2022-11-23T12:29:40;10.30;99.90
32522;DHT22;18963;51.504;5.316;2022-11-23T12:42:19;10.20;99.90
32522;DHT22;18963;51.504;5.316;2022-11-23T12:57:36;10.30;99.90
32522;DHT22;18963;51.504;5.316;2022-11-23T13:00:21;10.40;99.90
32522;DHT22;18963;51.504;5.316;2022-11-23T13:05:26;10.50;99.90
32522;DHT22;18963;51.504;5.316;2022-11-23T13:08:22;10.50;99.90
32522;DHT22;18963;51.504;5.316;2022-11-23T13:23:26;10.40;99.90
32522;DHT22;18963;51.504;5.316;2022-11-23T13:28:36;10.40;99.90
32522;DHT22;18963;51.504;5.316;2022-11-23T13:33:39;10.40;99.90
32522;DHT22;18963;51.504;5.316;2022-11-23T13:36:08;10.40;99.90
32522;DHT22;18963;51.504;5.316;2022-11-23T13:38:38;10.40;99.90
32522;DHT22;18963;51.504;5.316;2022-11-23T13:41:55;10.30;99.90
32522;DHT22;18963;51.504;5.316;2022-11-23T13:43:49;10.30;99.90
32522;DHT22;18963;51.504;5.316;2022-11-23T13:46:20;10.10;99.90
32522;DHT22;18963;51.504;5.316;2022-11-23T13:48:50;10.00;99.90
32522;DHT22;18963;51.504;5.316;2022-11-23T13:51:30;9.80;99.90
32522;DHT22;18963;51.504;5.316;2022-11-23T13:56:28;9.50;99.90
32522;DHT22;18963;51.504;5.316;2022-11-23T13:58:56;9.40;99.90
32522;DHT22;18963;51.504;5.316;2022-11-23T14:04:19;9.10;99.90
32522;DHT22;18963;51.504;5.316;2022-11-23T14:06:46;9.00;99.90
32522;DHT22;18963;51.504;5.316;2022-11-23T14:17:22;8.80;99.90
32522;DHT22;18963;51.504;5.316;2022-11-23T14:20:30;8.70;99.90
32522;DHT22;18963;51.504;5.316;2022-11-23T14:31:03;8.60;99.90
32522;DHT22;18963;51.504;5.316;2022-11-23T14:33:33;8.50;99.90
32522;DHT22;18963;51.504;5.316;2022-11-23T14:41:29;8.40;99.90
32522;DHT22;18963;51.504;5.316;2022-11-23T14:43:56;8.40;99.90
32522;DHT22;18963;51.504;5.316;2022-11-23T14:46:24;8.40;99.90
32522;DHT22;18963;51.504;5.316;2022-11-23T14:49:02;8.40;99.90
32522;DHT22;18963;51.504;5.316;2022-11-23T14:51:40;8.40;99.90
32522;DHT22;18963;51.504;5.316;2022-11-23T14:54:13;8.40;99.90
32522;DHT22;18963;51.504;5.316;2022-11-23T14:56:46;8.30;99.90
32522;DHT22;18963;51.504;5.316;2022-11-23T15:01:46;8.30;99.90
32522;DHT22;18963;51.504;5.316;2022-11-23T15:04:26;8.30;99.90
32522;DHT22;18963;51.504;5.316;2022-11-23T16:25:43;8.00;99.90
32522;DHT22;18963;51.504;5.316;2022-11-23T16:30:59;8.00;99.90
32522;DHT22;18963;51.504;5.316;2022-11-23T16:33:45;8.00;99.90
32522;DHT22;18963;51.504;5.316;2022-11-23T16:39:48;8.00;99.90
32522;DHT22;18963;51.504;5.316;2022-11-23T16:42:49;8.00;99.90
32522;DHT22;18963;51.504;5.316;2022-11-23T16:45:41;8.00;99.90
32522;DHT22;18963;51.504;5.316;2022-11-23T16:50:49;8.00;99.90
32522;DHT22;18963;51.504;5.316;2022-11-23T17:08:11;8.00;99.90
32522;DHT22;18963;51.504;5.316;2022-11-23T17:10:42;8.00;99.90
32522;DHT22;18963;51.504;5.316;2022-11-23T17:13:26;8.00;99.90
32522;DHT22;18963;51.504;5.316;2022-11-23T17:21:14;7.90;99.90
32522;DHT22;18963;51.504;5.316;2022-11-23T17:24:16;7.90;99.90
32522;DHT22;18963;51.504;5.316;2022-11-23T17:26:57;7.90;99.90
32522;DHT22;18963;51.504;5.316;2022-11-23T17:29:48;7.90;99.90
32522;DHT22;18963;51.504;5.316;2022-11-23T17:32:33;7.90;99.90
32522;DHT22;18963;51.504;5.316;2022-11-23T17:35:04;7.90;99.90
32522;DHT22;18963;51.504;5.316;2022-11-23T17:37:36;7.90;99.90
32522;DHT22;18963;51.504;5.316;2022-11-23T17:43:03;7.80;99.90
32522;DHT22;18963;51.504;5.316;2022-11-23T17:45:47;7.80;99.90
32522;DHT22;18963;51.504;5.316;2022-11-23T17:48:26;7.80;99.90
32522;DHT22;18963;51.504;5.316;2022-11-23T17:51:00;7.70;99.90
32522;DHT22;18963;51.504;5.316;2022-11-23T17:53:31;7.70;99.90
32522;DHT22;18963;51.504;5.316;2022-11-23T17:56:00;7.70;99.90
32522;DHT22;18963;51.504;5.316;2022-11-23T17:58:34;7.60;99.90
32522;DHT22;18963;51.504;5.316;2022-11-23T18:01:03;7.60;99.90
32522;DHT22;18963;51.504;5.316;2022-11-23T18:03:31;7.60;99.90
32522;DHT22;18963;51.504;5.316;2022-11-23T18:05:56;7.60;99.90
32522;DHT22;18963;51.504;5.316;2022-11-23T18:08:35;7.50;99.90
32522;DHT22;18963;51.504;5.316;2022-11-23T18:11:06;7.40;99.90
32522;DHT22;18963;51.504;5.316;2022-11-23T18:13:34;7.40;99.90
32522;DHT22;18963;51.504;5.316;2022-11-23T18:16:00;7.40;99.90
32522;DHT22;18963;51.504;5.316;2022-11-23T18:18:25;7.40;99.90
32522;DHT22;18963;51.504;5.316;2022-11-23T18:20:54;7.30;99.90
32522;DHT22;18963;51.504;5.316;2022-11-23T18:23:20;7.30;99.90
32522;DHT22;18963;51.504;5.316;2022-11-23T18:25:50;7.20;99.90
32522;DHT22;18963;51.504;5.316;2022-11-23T18:28:30;7.20;99.90
32522;DHT22;18963;51.504;5.316;2022-11-23T18:30:59;7.10;99.90
32522;DHT22;18963;51.504;5.316;2022-11-23T18:33:28;7.10;99.90
32522;DHT22;18963;51.504;5.316;2022-11-23T18:35:54;7.10;99.90
32522;DHT22;18963;51.504;5.316;2022-11-23T18:41:07;7.00;99.90
32522;DHT22;18963;51.504;5.316;2022-11-23T18:43:33;7.00;99.90
32522;DHT22;18963;51.504;5.316;2022-11-23T18:46:07;7.00;99.90
32522;DHT22;18963;51.504;5.316;2022-11-23T18:48:34;6.90;99.90
32522;DHT22;18963;51.504;5.316;2022-11-23T18:51:03;6.90;99.90
32522;DHT22;18963;51.504;5.316;2022-11-23T18:53:37;6.90;99.90
32522;DHT22;18963;51.504;5.316;2022-11-23T18:56:09;6.90;99.90
32522;DHT22;18963;51.504;5.316;2022-11-23T18:58:43;6.80;99.90
32522;DHT22;18963;51.504;5.316;2022-11-23T19:01:14;6.80;99.90
32522;DHT22;18963;51.504;5.316;2022-11-23T19:03:53;6.80;99.90
32522;DHT22;18963;51.504;5.316;2022-11-23T19:06:21;6.80;99.90
32522;DHT22;18963;51.504;5.316;2022-11-23T19:08:54;6.70;99.90
32522;DHT22;18963;51.504;5.316;2022-11-23T19:11:28;6.70;99.90
32522;DHT22;18963;51.504;5.316;2022-11-23T19:13:57;6.70;99.90
32522;DHT22;18963;51.504;5.316;2022-11-23T19:16:26;6.80;99.90
32522;DHT22;18963;51.504;5.316;2022-11-23T19:19:02;6.80;99.90
32522;DHT22;18963;51.504;5.316;2022-11-23T19:21:34;6.80;99.90
32522;DHT22;18963;51.504;5.316;2022-11-23T19:24:00;6.90;99.90
32522;DHT22;18963;51.504;5.316;2022-11-23T19:26:27;6.90;99.90
32522;DHT22;18963;51.504;5.316;2022-11-23T19:28:55;7.00;99.90
32522;DHT22;18963;51.504;5.316;2022-11-23T19:31:24;7.00;99.90
32522;DHT22;18963;51.504;5.316;2022-11-23T19:33:58;7.00;99.90
32522;DHT22;18963;51.504;5.316;2022-11-23T19:36:25;7.10;99.90
32522;DHT22;18963;51.504;5.316;2022-11-23T19:38:51;7.10;99.90
32522;DHT22;18963;51.504;5.316;2022-11-23T19:41:20;7.10;99.90
32522;DHT22;18963;51.504;5.316;2022-11-23T19:43:50;7.10;99.90
32522;DHT22;18963;51.504;5.316;2022-11-23T19:46:16;7.00;99.90
32522;DHT22;18963;51.504;5.316;2022-11-23T19:48:44;7.00;99.90
32522;DHT22;18963;51.504;5.316;2022-11-23T19:51:13;7.00;99.90
32522;DHT22;18963;51.504;5.316;2022-11-23T19:53:42;6.90;99.90
32522;DHT22;18963;51.504;5.316;2022-11-23T19:56:12;6.90;99.90